Terminal Aerodrome Forecast
Issued by NWS Charleston, WV

Current Version | Previous Version | Text Only | Print | Product List | Glossary Off
Versions: 1 2 3 4 5 6 7 8 9 10 11 12 13 14 15 16 17 18 19

971
FTUS41 KRLX 080901 AAB
TAFEKN
TAF AMD
KEKN 080901Z 0809/0906 00000KT P6SM BKN150
     FM081400 18004KT 3SM BR OVC040
     FM081600 18005KT 2SM -RASN BKN028
     FM082100 24005KT 2SM -RA OVC006=

USA.gov is the U.S. government's official web portal to all federal, state and local government web resources and services.